sensor_id;sensor_type;location;lat;lon;timestamp;P1;durP1;ratioP1;P2;durP2;ratioP2
45620;SDS011;31345;51.522;10.702;2023-03-26T00:00:39;3.50;;;1.70;;
45620;SDS011;31345;51.522;10.702;2023-03-26T00:03:14;2.53;;;1.50;;
45620;SDS011;31345;51.522;10.702;2023-03-26T00:05:47;1.93;;;1.23;;
45620;SDS011;31345;51.522;10.702;2023-03-26T00:08:16;1.83;;;1.43;;
45620;SDS011;31345;51.522;10.702;2023-03-26T00:10:44;3.67;;;1.60;;
45620;SDS011;31345;51.522;10.702;2023-03-26T00:13:13;3.27;;;1.60;;
45620;SDS011;31345;51.522;10.702;2023-03-26T00:15:47;3.08;;;1.50;;
45620;SDS011;31345;51.522;10.702;2023-03-26T00:18:14;2.20;;;1.57;;
45620;SDS011;31345;51.522;10.702;2023-03-26T00:20:45;2.63;;;1.50;;
45620;SDS011;31345;51.522;10.702;2023-03-26T00:23:19;2.40;;;1.30;;
45620;SDS011;31345;51.522;10.702;2023-03-26T00:25:52;1.93;;;1.37;;
45620;SDS011;31345;51.522;10.702;2023-03-26T00:28:25;3.57;;;1.57;;
45620;SDS011;31345;51.522;10.702;2023-03-26T00:30:59;3.67;;;1.67;;
45620;SDS011;31345;51.522;10.702;2023-03-26T00:33:28;3.23;;;1.37;;
45620;SDS011;31345;51.522;10.702;2023-03-26T00:36:04;2.37;;;1.50;;
45620;SDS011;31345;51.522;10.702;2023-03-26T00:38:35;2.73;;;1.13;;
45620;SDS011;31345;51.522;10.702;2023-03-26T00:41:10;2.00;;;1.30;;
45620;SDS011;31345;51.522;10.702;2023-03-26T00:43:48;3.67;;;1.63;;
45620;SDS011;31345;51.522;10.702;2023-03-26T00:46:23;3.67;;;1.43;;
45620;SDS011;31345;51.522;10.702;2023-03-26T00:48:57;2.40;;;1.30;;
45620;SDS011;31345;51.522;10.702;2023-03-26T00:51:25;3.13;;;1.57;;
45620;SDS011;31345;51.522;10.702;2023-03-26T00:53:54;2.23;;;1.40;;
45620;SDS011;31345;51.522;10.702;2023-03-26T00:56:27;5.27;;;1.97;;
45620;SDS011;31345;51.522;10.702;2023-03-26T00:59:00;3.83;;;1.60;;
45620;SDS011;31345;51.522;10.702;2023-03-26T01:01:35;3.97;;;1.60;;
45620;SDS011;31345;51.522;10.702;2023-03-26T01:04:21;2.90;;;1.50;;
45620;SDS011;31345;51.522;10.702;2023-03-26T01:06:57;3.50;;;1.57;;
45620;SDS011;31345;51.522;10.702;2023-03-26T01:09:30;2.80;;;1.50;;
45620;SDS011;31345;51.522;10.702;2023-03-26T01:14:28;2.83;;;1.50;;
45620;SDS011;31345;51.522;10.702;2023-03-26T01:16:57;3.10;;;1.17;;
45620;SDS011;31345;51.522;10.702;2023-03-26T01:19:35;3.17;;;1.37;;
45620;SDS011;31345;51.522;10.702;2023-03-26T01:22:15;2.87;;;1.40;;
45620;SDS011;31345;51.522;10.702;2023-03-26T01:24:50;1.90;;;1.13;;
45620;SDS011;31345;51.522;10.702;2023-03-26T01:27:27;3.17;;;1.30;;
45620;SDS011;31345;51.522;10.702;2023-03-26T01:30:08;3.87;;;1.57;;
45620;SDS011;31345;51.522;10.702;2023-03-26T01:32:54;2.05;;;1.30;;
45620;SDS011;31345;51.522;10.702;2023-03-26T01:35:36;2.47;;;1.20;;
45620;SDS011;31345;51.522;10.702;2023-03-26T01:38:19;2.83;;;1.50;;
45620;SDS011;31345;51.522;10.702;2023-03-26T01:40:59;5.07;;;2.00;;
45620;SDS011;31345;51.522;10.702;2023-03-26T01:43:35;3.37;;;2.00;;
45620;SDS011;31345;51.522;10.702;2023-03-26T01:48:49;3.57;;;1.77;;
45620;SDS011;31345;51.522;10.702;2023-03-26T01:51:26;5.17;;;1.90;;
45620;SDS011;31345;51.522;10.702;2023-03-26T01:53:56;3.97;;;2.15;;
45620;SDS011;31345;51.522;10.702;2023-03-26T01:56:33;3.67;;;2.20;;
45620;SDS011;31345;51.522;10.702;2023-03-26T01:59:16;4.80;;;2.20;;
45620;SDS011;31345;51.522;10.702;2023-03-26T02:02:03;5.78;;;2.35;;
45620;SDS011;31345;51.522;10.702;2023-03-26T02:04:37;5.37;;;2.47;;
45620;SDS011;31345;51.522;10.702;2023-03-26T02:07:18;6.18;;;2.42;;
45620;SDS011;31345;51.522;10.702;2023-03-26T02:09:54;6.10;;;2.63;;
45620;SDS011;31345;51.522;10.702;2023-03-26T02:12:32;3.13;;;2.20;;
45620;SDS011;31345;51.522;10.702;2023-03-26T02:15:01;5.65;;;2.50;;
45620;SDS011;31345;51.522;10.702;2023-03-26T02:17:29;4.87;;;2.40;;
45620;SDS011;31345;51.522;10.702;2023-03-26T02:19:58;6.47;;;2.90;;
45620;SDS011;31345;51.522;10.702;2023-03-26T02:22:35;5.60;;;2.80;;
45620;SDS011;31345;51.522;10.702;2023-03-26T02:25:08;5.70;;;2.93;;
45620;SDS011;31345;51.522;10.702;2023-03-26T02:27:43;7.63;;;2.73;;
45620;SDS011;31345;51.522;10.702;2023-03-26T02:30:14;6.23;;;2.80;;
45620;SDS011;31345;51.522;10.702;2023-03-26T02:32:46;6.60;;;2.80;;
45620;SDS011;31345;51.522;10.702;2023-03-26T02:35:18;3.63;;;2.50;;
45620;SDS011;31345;51.522;10.702;2023-03-26T02:37:52;6.53;;;3.05;;
45620;SDS011;31345;51.522;10.702;2023-03-26T02:40:26;5.37;;;3.03;;
45620;SDS011;31345;51.522;10.702;2023-03-26T02:42:56;7.30;;;2.80;;
45620;SDS011;31345;51.522;10.702;2023-03-26T02:45:38;6.90;;;2.67;;
45620;SDS011;31345;51.522;10.702;2023-03-26T02:48:11;6.33;;;3.03;;
45620;SDS011;31345;51.522;10.702;2023-03-26T02:50:45;9.70;;;2.70;;
45620;SDS011;31345;51.522;10.702;2023-03-26T02:53:33;5.60;;;3.00;;
45620;SDS011;31345;51.522;10.702;2023-03-26T02:56:30;6.73;;;3.50;;
45620;SDS011;31345;51.522;10.702;2023-03-26T02:59:13;7.13;;;2.95;;
45620;SDS011;31345;51.522;10.702;2023-03-26T03:01:43;4.53;;;2.47;;
45620;SDS011;31345;51.522;10.702;2023-03-26T03:04:18;5.22;;;2.50;;
45620;SDS011;31345;51.522;10.702;2023-03-26T03:06:47;4.50;;;2.57;;
45620;SDS011;31345;51.522;10.702;2023-03-26T03:09:29;4.67;;;2.17;;
45620;SDS011;31345;51.522;10.702;2023-03-26T03:12:24;7.07;;;2.50;;
45620;SDS011;31345;51.522;10.702;2023-03-26T03:14:54;5.83;;;2.47;;
45620;SDS011;31345;51.522;10.702;2023-03-26T03:17:21;7.00;;;2.43;;
45620;SDS011;31345;51.522;10.702;2023-03-26T03:19:54;5.50;;;2.53;;
45620;SDS011;31345;51.522;10.702;2023-03-26T03:22:22;5.70;;;2.77;;
45620;SDS011;31345;51.522;10.702;2023-03-26T03:24:55;4.73;;;2.33;;
45620;SDS011;31345;51.522;10.702;2023-03-26T03:27:30;4.60;;;2.50;;
45620;SDS011;31345;51.522;10.702;2023-03-26T03:30:12;5.57;;;2.72;;
45620;SDS011;31345;51.522;10.702;2023-03-26T03:33:05;6.80;;;3.23;;
45620;SDS011;31345;51.522;10.702;2023-03-26T03:35:34;5.83;;;2.60;;
45620;SDS011;31345;51.522;10.702;2023-03-26T03:38:08;6.27;;;2.63;;
45620;SDS011;31345;51.522;10.702;2023-03-26T03:40:50;6.77;;;2.83;;
45620;SDS011;31345;51.522;10.702;2023-03-26T03:43:21;4.93;;;2.67;;
45620;SDS011;31345;51.522;10.702;2023-03-26T03:46:17;4.77;;;3.20;;
45620;SDS011;31345;51.522;10.702;2023-03-26T03:48:52;5.57;;;3.00;;
45620;SDS011;31345;51.522;10.702;2023-03-26T03:51:33;4.97;;;3.13;;
45620;SDS011;31345;51.522;10.702;2023-03-26T03:54:13;4.07;;;3.23;;
45620;SDS011;31345;51.522;10.702;2023-03-26T03:57:06;5.43;;;3.03;;
45620;SDS011;31345;51.522;10.702;2023-03-26T03:59:52;5.40;;;3.40;;
45620;SDS011;31345;51.522;10.702;2023-03-26T04:02:30;6.47;;;3.30;;
45620;SDS011;31345;51.522;10.702;2023-03-26T04:05:08;6.23;;;3.47;;
45620;SDS011;31345;51.522;10.702;2023-03-26T04:07:46;6.80;;;3.90;;
45620;SDS011;31345;51.522;10.702;2023-03-26T04:10:25;7.93;;;4.50;;
45620;SDS011;31345;51.522;10.702;2023-03-26T04:13:24;6.77;;;4.40;;
45620;SDS011;31345;51.522;10.702;2023-03-26T04:16:12;5.77;;;4.37;;
45620;SDS011;31345;51.522;10.702;2023-03-26T04:18:41;7.03;;;4.20;;
45620;SDS011;31345;51.522;10.702;2023-03-26T04:21:18;7.97;;;4.40;;
45620;SDS011;31345;51.522;10.702;2023-03-26T04:23:51;6.20;;;4.20;;
45620;SDS011;31345;51.522;10.702;2023-03-26T04:26:44;5.83;;;4.47;;
45620;SDS011;31345;51.522;10.702;2023-03-26T04:29:21;4.67;;;3.47;;
45620;SDS011;31345;51.522;10.702;2023-03-26T04:31:53;7.13;;;3.67;;
45620;SDS011;31345;51.522;10.702;2023-03-26T04:34:39;5.73;;;3.60;;
45620;SDS011;31345;51.522;10.702;2023-03-26T04:37:14;8.57;;;4.13;;
45620;SDS011;31345;51.522;10.702;2023-03-26T04:40:02;9.57;;;4.40;;
45620;SDS011;31345;51.522;10.702;2023-03-26T04:42:47;8.30;;;4.00;;
45620;SDS011;31345;51.522;10.702;2023-03-26T04:45:24;7.77;;;4.17;;
45620;SDS011;31345;51.522;10.702;2023-03-26T04:48:00;5.83;;;4.00;;
45620;SDS011;31345;51.522;10.702;2023-03-26T04:50:34;5.60;;;3.50;;
45620;SDS011;31345;51.522;10.702;2023-03-26T04:53:08;7.30;;;3.40;;
45620;SDS011;31345;51.522;10.702;2023-03-26T04:56:12;7.72;;;3.35;;
45620;SDS011;31345;51.522;10.702;2023-03-26T04:59:17;7.67;;;2.90;;
45620;SDS011;31345;51.522;10.702;2023-03-26T05:01:50;4.72;;;2.67;;
45620;SDS011;31345;51.522;10.702;2023-03-26T05:04:24;7.93;;;3.13;;
45620;SDS011;31345;51.522;10.702;2023-03-26T05:07:00;4.78;;;2.50;;
45620;SDS011;31345;51.522;10.702;2023-03-26T05:09:48;7.77;;;2.40;;
45620;SDS011;31345;51.522;10.702;2023-03-26T05:12:27;4.63;;;2.33;;
45620;SDS011;31345;51.522;10.702;2023-03-26T05:15:03;3.50;;;2.17;;
45620;SDS011;31345;51.522;10.702;2023-03-26T05:17:52;3.35;;;1.85;;
45620;SDS011;31345;51.522;10.702;2023-03-26T05:20:35;3.37;;;2.07;;
45620;SDS011;31345;51.522;10.702;2023-03-26T05:23:06;5.15;;;2.30;;
45620;SDS011;31345;51.522;10.702;2023-03-26T05:25:59;6.32;;;2.35;;
45620;SDS011;31345;51.522;10.702;2023-03-26T05:28:32;5.47;;;2.40;;
45620;SDS011;31345;51.522;10.702;2023-03-26T05:31:07;4.17;;;2.30;;
45620;SDS011;31345;51.522;10.702;2023-03-26T05:33:43;4.88;;;2.10;;
45620;SDS011;31345;51.522;10.702;2023-03-26T05:36:17;5.18;;;1.98;;
45620;SDS011;31345;51.522;10.702;2023-03-26T05:38:51;4.07;;;2.22;;
45620;SDS011;31345;51.522;10.702;2023-03-26T05:44:24;5.40;;;2.80;;
45620;SDS011;31345;51.522;10.702;2023-03-26T05:46:57;5.00;;;2.50;;
45620;SDS011;31345;51.522;10.702;2023-03-26T05:49:32;5.35;;;2.53;;
45620;SDS011;31345;51.522;10.702;2023-03-26T05:52:04;5.75;;;2.42;;
45620;SDS011;31345;51.522;10.702;2023-03-26T05:54:50;7.22;;;2.70;;
45620;SDS011;31345;51.522;10.702;2023-03-26T05:57:36;5.15;;;2.75;;
45620;SDS011;31345;51.522;10.702;2023-03-26T06:03:13;7.20;;;3.00;;
45620;SDS011;31345;51.522;10.702;2023-03-26T06:06:10;5.07;;;2.70;;
45620;SDS011;31345;51.522;10.702;2023-03-26T06:08:50;7.15;;;3.20;;
45620;SDS011;31345;51.522;10.702;2023-03-26T06:11:21;4.40;;;2.83;;
45620;SDS011;31345;51.522;10.702;2023-03-26T06:13:48;7.30;;;3.00;;
45620;SDS011;31345;51.522;10.702;2023-03-26T06:16:22;6.30;;;2.80;;
45620;SDS011;31345;51.522;10.702;2023-03-26T06:19:01;6.47;;;2.60;;
45620;SDS011;31345;51.522;10.702;2023-03-26T06:21:52;7.10;;;3.10;;
45620;SDS011;31345;51.522;10.702;2023-03-26T06:24:34;6.00;;;2.92;;
45620;SDS011;31345;51.522;10.702;2023-03-26T06:27:29;4.55;;;2.63;;
45620;SDS011;31345;51.522;10.702;2023-03-26T06:30:30;8.05;;;2.60;;
45620;SDS011;31345;51.522;10.702;2023-03-26T06:33:11;6.10;;;2.50;;
45620;SDS011;31345;51.522;10.702;2023-03-26T06:35:46;6.07;;;2.65;;
45620;SDS011;31345;51.522;10.702;2023-03-26T06:38:21;4.90;;;2.50;;
45620;SDS011;31345;51.522;10.702;2023-03-26T06:40:57;7.10;;;2.75;;
45620;SDS011;31345;51.522;10.702;2023-03-26T06:44:04;10.70;;;2.80;;
45620;SDS011;31345;51.522;10.702;2023-03-26T06:46:55;6.55;;;2.85;;
45620;SDS011;31345;51.522;10.702;2023-03-26T06:49:46;5.07;;;2.80;;
45620;SDS011;31345;51.522;10.702;2023-03-26T06:52:30;7.70;;;2.97;;
45620;SDS011;31345;51.522;10.702;2023-03-26T06:55:27;6.47;;;2.72;;
45620;SDS011;31345;51.522;10.702;2023-03-26T06:58:20;6.25;;;3.53;;
45620;SDS011;31345;51.522;10.702;2023-03-26T07:01:12;7.85;;;3.42;;
45620;SDS011;31345;51.522;10.702;2023-03-26T07:04:06;11.90;;;3.35;;
45620;SDS011;31345;51.522;10.702;2023-03-26T07:06:57;13.27;;;4.53;;
45620;SDS011;31345;51.522;10.702;2023-03-26T07:09:54;10.48;;;3.25;;
45620;SDS011;31345;51.522;10.702;2023-03-26T07:12:45;8.50;;;3.65;;
45620;SDS011;31345;51.522;10.702;2023-03-26T07:15:36;6.40;;;2.47;;
45620;SDS011;31345;51.522;10.702;2023-03-26T07:18:24;8.23;;;3.80;;
45620;SDS011;31345;51.522;10.702;2023-03-26T07:20:57;8.32;;;2.92;;
45620;SDS011;31345;51.522;10.702;2023-03-26T07:23:29;8.27;;;3.00;;
45620;SDS011;31345;51.522;10.702;2023-03-26T07:26:22;8.85;;;2.88;;
45620;SDS011;31345;51.522;10.702;2023-03-26T07:29:17;8.13;;;3.60;;
45620;SDS011;31345;51.522;10.702;2023-03-26T07:32:07;7.40;;;3.28;;
45620;SDS011;31345;51.522;10.702;2023-03-26T07:34:53;7.00;;;2.75;;
45620;SDS011;31345;51.522;10.702;2023-03-26T07:37:47;5.43;;;3.17;;
45620;SDS011;31345;51.522;10.702;2023-03-26T07:40:43;13.27;;;4.30;;
45620;SDS011;31345;51.522;10.702;2023-03-26T07:43:47;8.63;;;2.90;;
45620;SDS011;31345;51.522;10.702;2023-03-26T07:46:56;10.93;;;3.60;;
45620;SDS011;31345;51.522;10.702;2023-03-26T07:49:43;14.23;;;3.88;;
45620;SDS011;31345;51.522;10.702;2023-03-26T07:52:33;12.60;;;3.65;;
45620;SDS011;31345;51.522;10.702;2023-03-26T07:55:16;9.65;;;3.58;;
45620;SDS011;31345;51.522;10.702;2023-03-26T07:58:12;14.68;;;3.90;;
45620;SDS011;31345;51.522;10.702;2023-03-26T08:01:15;10.90;;;3.17;;
45620;SDS011;31345;51.522;10.702;2023-03-26T08:04:01;11.98;;;3.33;;
45620;SDS011;31345;51.522;10.702;2023-03-26T08:07:14;14.77;;;4.90;;
45620;SDS011;31345;51.522;10.702;2023-03-26T08:10:17;12.70;;;3.65;;
45620;SDS011;31345;51.522;10.702;2023-03-26T08:13:12;10.32;;;3.63;;
45620;SDS011;31345;51.522;10.702;2023-03-26T08:15:51;11.27;;;3.83;;
45620;SDS011;31345;51.522;10.702;2023-03-26T08:18:34;9.20;;;3.40;;
45620;SDS011;31345;51.522;10.702;2023-03-26T08:21:16;13.35;;;3.92;;
45620;SDS011;31345;51.522;10.702;2023-03-26T09:34:16;13.48;;;3.88;;
45620;SDS011;31345;51.522;10.702;2023-03-26T09:38:09;9.02;;;3.20;;
45620;SDS011;31345;51.522;10.702;2023-03-26T09:50:39;9.35;;;3.67;;
45620;SDS011;31345;51.522;10.702;2023-03-26T10:01:11;12.63;;;4.05;;
